Terminal Aerodrome Forecast
Issued by NWS

Home | Current Version | Previous Version | Text Only | Print | Product List | Glossary On
Versions: 1 2 3 4 5 6 7 8 9 10 11 12 13
000
FTUS42 TJSJ 302300 RRA
TAFJMZ
TAF
TJMZ 302339Z 3100/3124 09007KT P6SM FEW025 BKN050
     FM310200 05002KT P6SM SKC
     FM311530 27010KT P6SM VCSH SCT025 BKN040
      AMD NOT SKED TIL 311100=

USA.gov is the U.S. government's official web portal to all federal, state and local government web resources and services.